createdAt,value
2024-05-09T00:01:33.408Z,101953.00
2024-05-09T00:04:18.839Z,101956.00
2024-05-09T00:06:49.804Z,101961.00
2024-05-09T00:09:28.562Z,101953.00
2024-05-09T00:12:02.894Z,101944.00
2024-05-09T00:14:40.206Z,101942.00
2024-05-09T00:17:17.694Z,101942.00
2024-05-09T00:19:57.775Z,101942.00
2024-05-09T00:22:30.398Z,101945.00
2024-05-09T00:25:02.529Z,101950.00
2024-05-09T00:27:36.090Z,101948.00
2024-05-09T00:30:31.066Z,101945.00
2024-05-09T00:33:10.098Z,101946.00
2024-05-09T00:35:55.756Z,101933.00
2024-05-09T00:38:29.190Z,101939.00
2024-05-09T00:41:03.200Z,101936.00
2024-05-09T00:43:34.398Z,101936.00
2024-05-09T00:46:07.546Z,101917.00
2024-05-09T00:48:39.725Z,101914.00
2024-05-09T00:51:13.793Z,101924.00
2024-05-09T00:53:45.218Z,101917.00
2024-05-09T00:56:17.705Z,101917.00
2024-05-09T00:58:48.833Z,101916.00
2024-05-09T01:01:31.374Z,101910.00
2024-05-09T01:04:05.453Z,101914.00
2024-05-09T01:06:39.069Z,101912.00
2024-05-09T01:09:10.182Z,101906.00
2024-05-09T01:12:04.430Z,101917.00
2024-05-09T01:14:39.951Z,101905.00
2024-05-09T01:17:13.093Z,101905.00
2024-05-09T01:19:48.175Z,101913.00
2024-05-09T01:22:27.645Z,101905.00
2024-05-09T01:25:02.276Z,101902.00
2024-05-09T01:27:36.228Z,101908.00
2024-05-09T01:30:11.894Z,101902.00
2024-05-09T01:32:48.643Z,101896.00
2024-05-09T01:35:23.652Z,101891.00
2024-05-09T01:37:55.671Z,101891.00
2024-05-09T01:40:37.573Z,101889.00
2024-05-09T01:43:13.468Z,101889.00
2024-05-09T01:46:05.641Z,101889.00
2024-05-09T01:48:43.012Z,101889.00
2024-05-09T01:51:18.383Z,101893.00
2024-05-09T01:53:51.592Z,101889.00
2024-05-09T01:56:29.244Z,101887.00
2024-05-09T01:59:00.622Z,101887.00
2024-05-09T02:01:55.546Z,101883.00
2024-05-09T02:04:25.921Z,101891.00
2024-05-09T02:06:57.184Z,101886.00
2024-05-09T02:12:20.167Z,101886.00
2024-05-09T02:14:52.056Z,101883.00
2024-05-09T02:17:25.044Z,101878.00
2024-05-09T02:19:56.418Z,101892.00
2024-05-09T02:22:29.053Z,101890.00
2024-05-09T02:25:00.329Z,101891.00
2024-05-09T02:27:33.811Z,101881.00
2024-05-09T02:30:12.257Z,101885.00
2024-05-09T02:32:50.226Z,101881.00
2024-05-09T02:35:18.714Z,101887.00
2024-05-09T02:37:51.784Z,101882.00
2024-05-09T02:40:28.377Z,101887.00
2024-05-09T02:43:08.052Z,101885.00
2024-05-09T02:45:37.163Z,101893.00
2024-05-09T02:48:12.668Z,101894.00
2024-05-09T02:50:45.289Z,101885.00
2024-05-09T02:53:19.981Z,101889.00
2024-05-09T02:55:52.916Z,101888.00
2024-05-09T02:58:37.074Z,101877.00
2024-05-09T03:01:06.911Z,101886.00
2024-05-09T03:03:39.620Z,101887.00
2024-05-09T03:06:08.314Z,101882.00
2024-05-09T03:08:40.750Z,101883.00
2024-05-09T03:11:10.554Z,101886.00
2024-05-09T03:13:46.041Z,101886.00
2024-05-09T03:16:16.500Z,101890.00
2024-05-09T03:18:47.581Z,101884.00
2024-05-09T03:21:21.969Z,101887.00
2024-05-09T03:23:53.688Z,101885.00
2024-05-09T03:26:21.996Z,101871.00
2024-05-09T03:28:56.823Z,101871.00
2024-05-09T03:31:26.739Z,101877.00
2024-05-09T03:33:58.420Z,101875.00
2024-05-09T03:36:31.255Z,101871.00
2024-05-09T03:39:08.396Z,101870.00
2024-05-09T03:41:47.479Z,101869.00
2024-05-09T03:44:28.158Z,101854.00
2024-05-09T03:46:59.392Z,101864.00
2024-05-09T03:49:32.771Z,101863.00
2024-05-09T03:52:05.311Z,101860.00
2024-05-09T03:54:38.939Z,101861.00
2024-05-09T03:57:10.371Z,101860.00
2024-05-09T03:59:45.763Z,101847.00
2024-05-09T04:02:16.002Z,101854.00
2024-05-09T04:04:51.093Z,101858.00
2024-05-09T04:07:27.085Z,101849.00
2024-05-09T04:09:57.884Z,101850.00
2024-05-09T04:12:26.138Z,101849.00
2024-05-09T04:14:59.740Z,101849.00
2024-05-09T04:17:28.736Z,101844.00
2024-05-09T04:20:02.145Z,101851.00
2024-05-09T04:22:33.422Z,101845.00
2024-05-09T04:25:04.335Z,101845.00
2024-05-09T04:27:32.591Z,101836.00
2024-05-09T04:30:10.046Z,101848.00
2024-05-09T04:32:44.036Z,101845.00
2024-05-09T04:35:18.688Z,101842.00
2024-05-09T04:37:47.436Z,101844.00
2024-05-09T04:40:30.778Z,101836.00
2024-05-09T04:43:02.554Z,101843.00
2024-05-09T04:45:36.337Z,101832.00
2024-05-09T04:48:06.996Z,101844.00
2024-05-09T04:50:39.876Z,101836.00
2024-05-09T04:53:16.441Z,101835.00
2024-05-09T04:55:50.120Z,101817.00
2024-05-09T04:58:20.590Z,101828.00
2024-05-09T05:00:57.576Z,101825.00
2024-05-09T05:03:36.097Z,101828.00
2024-05-09T05:06:09.226Z,101819.00
2024-05-09T05:08:41.415Z,101822.00
2024-05-09T05:11:15.469Z,101824.00
2024-05-09T05:13:44.047Z,101826.00
2024-05-09T05:16:17.916Z,101834.00
2024-05-09T05:18:47.692Z,101832.00
2024-05-09T05:21:19.257Z,101820.00
2024-05-09T05:23:47.509Z,101808.00
2024-05-09T05:26:21.018Z,101821.00
2024-05-09T05:28:49.287Z,101819.00
2024-05-09T05:31:25.554Z,101814.00
2024-05-09T05:33:54.468Z,101822.00
2024-05-09T05:36:25.324Z,101815.00
2024-05-09T05:38:54.344Z,101814.00
2024-05-09T05:41:25.358Z,101824.00
2024-05-09T05:43:53.607Z,101798.00
2024-05-09T05:46:27.104Z,101805.00
2024-05-09T05:48:56.904Z,101803.00
2024-05-09T05:51:27.983Z,101797.00
2024-05-09T05:53:56.276Z,101779.00
2024-05-09T05:56:32.141Z,101795.00
2024-05-09T05:59:00.569Z,101812.00
2024-05-09T06:01:34.439Z,101812.00
2024-05-09T06:04:03.268Z,101818.00
2024-05-09T06:06:34.131Z,101798.00
2024-05-09T06:09:04.830Z,101780.00
2024-05-09T06:11:36.562Z,101793.00
2024-05-09T06:14:05.793Z,101797.00
2024-05-09T06:16:40.904Z,101782.00
2024-05-09T06:19:09.145Z,101789.00
2024-05-09T06:21:39.943Z,101788.00
2024-05-09T06:24:08.190Z,101777.00
2024-05-09T06:26:39.098Z,101775.00
2024-05-09T06:29:07.267Z,101777.00
2024-05-09T06:31:46.509Z,101774.00
2024-05-09T06:34:19.148Z,101769.00
2024-05-09T06:37:00.050Z,101787.00
2024-05-09T06:39:34.282Z,101767.00
2024-05-09T06:42:05.188Z,101774.00
2024-05-09T06:44:33.761Z,101765.00
2024-05-09T06:47:07.905Z,101760.00
2024-05-09T06:49:37.812Z,101748.00
2024-05-09T06:52:09.784Z,101760.00
2024-05-09T06:54:38.216Z,101760.00
2024-05-09T06:57:09.104Z,101731.00
2024-05-09T06:59:37.565Z,101745.00
2024-05-09T07:02:11.214Z,101755.00
2024-05-09T07:04:39.568Z,101724.00
2024-05-09T07:07:10.412Z,101721.00
2024-05-09T07:09:39.202Z,101743.00
2024-05-09T07:12:16.151Z,101710.00
2024-05-09T07:14:44.627Z,101730.00
2024-05-09T07:17:18.424Z,101742.00
2024-05-09T07:19:47.343Z,101680.00
2024-05-09T07:22:18.344Z,101721.00
2024-05-09T07:24:46.512Z,101702.00
2024-05-09T07:27:17.521Z,101717.00
2024-05-09T07:29:45.812Z,101728.00
2024-05-09T07:32:22.253Z,101719.00
2024-05-09T07:34:50.790Z,101710.00
2024-05-09T07:37:33.330Z,101731.00
2024-05-09T07:40:05.800Z,101740.00
2024-05-09T07:42:38.008Z,101714.00
2024-05-09T07:45:24.245Z,101763.00
2024-05-09T07:53:37.891Z,101691.00
2024-05-09T07:56:05.880Z,101742.00
2024-05-09T07:58:40.070Z,101674.00
2024-05-09T08:01:12.924Z,101681.00
2024-05-09T08:03:47.836Z,101707.00
2024-05-09T08:06:16.478Z,101657.00
2024-05-09T08:08:49.142Z,101651.00
2024-05-09T08:11:20.720Z,101695.00
2024-05-09T08:13:51.599Z,101656.00
2024-05-09T08:16:24.403Z,101664.00
2024-05-09T08:18:59.131Z,101668.00
2024-05-09T08:21:30.745Z,101659.00
2024-05-09T08:24:06.048Z,101682.00
2024-05-09T08:26:34.506Z,101652.00
2024-05-09T08:29:10.473Z,101641.00
2024-05-09T08:31:39.011Z,101652.00
2024-05-09T08:34:13.491Z,101646.00
2024-05-09T08:36:42.637Z,101667.00
2024-05-09T08:39:13.688Z,101643.00
2024-05-09T08:41:43.446Z,101632.00
2024-05-09T08:44:15.556Z,101627.00
2024-05-09T08:46:54.638Z,101650.00
2024-05-09T08:49:32.949Z,101629.00
2024-05-09T08:52:01.361Z,101651.00
2024-05-09T08:54:33.497Z,101623.00
2024-05-09T08:57:02.879Z,101605.00
2024-05-09T08:59:40.507Z,101608.00
2024-05-09T09:02:17.268Z,101598.00
2024-05-09T09:05:05.013Z,101569.00
2024-05-09T09:07:39.420Z,101571.00
2024-05-09T09:10:17.698Z,101615.00
2024-05-09T09:13:01.552Z,101602.00
2024-05-09T09:15:33.039Z,101614.00
2024-05-09T09:18:03.344Z,101583.00
2024-05-09T09:20:37.281Z,101608.00
2024-05-09T09:23:09.383Z,101565.00
2024-05-09T09:25:45.558Z,101579.00
2024-05-09T09:28:27.540Z,101579.00
2024-05-09T09:33:49.794Z,101560.00
2024-05-09T09:36:28.268Z,101563.00
2024-05-09T09:38:58.688Z,101566.00
2024-05-09T09:41:38.661Z,101549.00
2024-05-09T09:44:12.756Z,101591.00
2024-05-09T09:46:46.763Z,101563.00
2024-05-09T09:49:18.850Z,101547.00
2024-05-09T09:51:54.914Z,101563.00
2024-05-09T09:54:25.847Z,101538.00
2024-05-09T09:57:05.046Z,101538.00
2024-05-09T09:59:39.697Z,101533.00
2024-05-09T10:02:11.466Z,101521.00
2024-05-09T10:04:40.720Z,101510.00
2024-05-09T10:07:16.767Z,101525.00
2024-05-09T10:09:46.642Z,101566.00
2024-05-09T10:12:18.979Z,101509.00
2024-05-09T10:14:51.349Z,101563.00
2024-05-09T10:17:22.800Z,101537.00
2024-05-09T10:19:51.668Z,101541.00
2024-05-09T10:22:35.128Z,101526.00
2024-05-09T10:25:08.767Z,101511.00
2024-05-09T10:27:42.438Z,101516.00
2024-05-09T10:30:17.885Z,101512.00
2024-05-09T10:33:00.833Z,101494.00
2024-05-09T10:35:41.700Z,101502.00
2024-05-09T10:38:17.397Z,101494.00
2024-05-09T10:40:50.448Z,101457.00
2024-05-09T10:43:25.145Z,101505.00
2024-05-09T10:45:57.567Z,101511.00
2024-05-09T10:48:29.984Z,101476.00
2024-05-09T10:50:58.446Z,101498.00
2024-05-09T10:53:35.239Z,101488.00
2024-05-09T10:56:03.838Z,101498.00
2024-05-09T10:58:36.401Z,101479.00
2024-05-09T11:01:07.258Z,101434.00
2024-05-09T11:03:42.438Z,101465.00
2024-05-09T11:06:15.305Z,101465.00
2024-05-09T11:09:07.960Z,101464.00
2024-05-09T11:11:39.224Z,101436.00
2024-05-09T11:14:17.633Z,101467.00
2024-05-09T11:16:46.825Z,101445.00
2024-05-09T11:19:19.905Z,101463.00
2024-05-09T11:21:55.937Z,101447.00
2024-05-09T11:24:34.489Z,101424.00
2024-05-09T11:27:22.596Z,101458.00
2024-05-09T11:29:54.431Z,101468.00
2024-05-09T11:32:30.207Z,101465.00
2024-05-09T11:35:02.948Z,101489.00
2024-05-09T11:37:37.231Z,101451.00
2024-05-09T11:40:21.005Z,101458.00
2024-05-09T11:42:53.699Z,101419.00
2024-05-09T11:45:26.133Z,101410.00
2024-05-09T11:47:56.192Z,101439.00
2024-05-09T11:50:35.438Z,101401.00
2024-05-09T11:53:05.752Z,101385.00
2024-05-09T11:55:39.711Z,101413.00
2024-05-09T11:58:08.799Z,101405.00
2024-05-09T12:00:40.080Z,101417.00
2024-05-09T12:03:10.479Z,101401.00
2024-05-09T12:05:45.197Z,101363.00
2024-05-09T12:08:20.720Z,101375.00
2024-05-09T12:10:57.288Z,101363.00
2024-05-09T12:13:29.054Z,101369.00
2024-05-09T12:16:01.273Z,101363.00
2024-05-09T12:18:30.774Z,101350.00
2024-05-09T12:21:12.498Z,101366.00
2024-05-09T12:23:41.741Z,101381.00
2024-05-09T12:26:19.422Z,101356.00
2024-05-09T12:28:48.195Z,101317.00
2024-05-09T12:31:32.808Z,101361.00
2024-05-09T12:34:27.607Z,101367.00
2024-05-09T12:37:16.038Z,101388.00
2024-05-09T12:39:45.520Z,101345.00
2024-05-09T12:42:27.228Z,101350.00
2024-05-09T12:44:57.188Z,101350.00
2024-05-09T12:47:28.983Z,101319.00
2024-05-09T12:49:59.247Z,101372.00
2024-05-09T12:52:39.280Z,101347.00
2024-05-09T12:55:14.495Z,101346.00
2024-05-09T12:58:15.776Z,101314.00
2024-05-09T13:00:53.646Z,101347.00
2024-05-09T13:03:22.859Z,101339.00
2024-05-09T13:05:54.796Z,101339.00
2024-05-09T13:08:23.778Z,101327.00
2024-05-09T13:10:57.122Z,101321.00
2024-05-09T13:13:29.222Z,101340.00
2024-05-09T13:16:01.770Z,101323.00
2024-05-09T13:18:30.780Z,101309.00
2024-05-09T13:21:06.887Z,101319.00
2024-05-09T13:23:35.880Z,101306.00
2024-05-09T13:26:06.843Z,101328.00
2024-05-09T13:28:40.173Z,101335.00
2024-05-09T13:31:13.952Z,101306.00
2024-05-09T13:33:46.300Z,101322.00
2024-05-09T13:36:17.433Z,101306.00
2024-05-09T13:38:58.963Z,101307.00
2024-05-09T13:41:31.535Z,101318.00
2024-05-09T13:44:02.723Z,101336.00
2024-05-09T13:46:37.493Z,101327.00
2024-05-09T13:49:09.416Z,101297.00
2024-05-09T13:51:46.058Z,101307.00
2024-05-09T13:54:20.175Z,101305.00
2024-05-09T13:56:52.432Z,101279.00
2024-05-09T13:59:26.654Z,101287.00
2024-05-09T14:01:55.073Z,101252.00
2024-05-09T14:04:26.140Z,101300.00
2024-05-09T14:06:54.643Z,101277.00
2024-05-09T14:09:25.535Z,101296.00
2024-05-09T14:12:01.916Z,101271.00
2024-05-09T14:14:38.762Z,101288.00
2024-05-09T14:17:09.073Z,101268.00
2024-05-09T14:19:41.323Z,101264.00
2024-05-09T14:22:10.995Z,101270.00
2024-05-09T14:24:45.097Z,101270.00
2024-05-09T14:27:13.360Z,101258.00
2024-05-09T14:29:46.741Z,101238.00
2024-05-09T14:32:18.767Z,101220.00
2024-05-09T14:34:52.630Z,101233.00
2024-05-09T14:37:24.086Z,101231.00
2024-05-09T14:39:55.024Z,101246.00
2024-05-09T14:42:24.186Z,101244.00
2024-05-09T14:45:00.683Z,101205.00
2024-05-09T14:47:29.959Z,101234.00
2024-05-09T14:50:00.916Z,101228.00
2024-05-09T14:52:31.991Z,101220.00
2024-05-09T14:55:07.977Z,101102.00
2024-05-09T14:57:42.305Z,101222.00
2024-05-09T15:00:24.784Z,101210.00
2024-05-09T15:02:57.615Z,101203.00
2024-05-09T15:05:31.750Z,101163.00
2024-05-09T15:08:08.017Z,101202.00
2024-05-09T15:10:44.633Z,101217.00
2024-05-09T15:13:16.229Z,101209.00
2024-05-09T15:15:58.183Z,101178.00
2024-05-09T15:18:29.469Z,101185.00
2024-05-09T15:21:01.362Z,101181.00
2024-05-09T15:23:39.483Z,101190.00
2024-05-09T15:27:13.388Z,101195.00
2024-05-09T15:29:44.514Z,101179.00
2024-05-09T15:32:21.902Z,101163.00
2024-05-09T15:34:51.552Z,101193.00
2024-05-09T15:37:26.186Z,101175.00
2024-05-09T15:39:55.779Z,101173.00
2024-05-09T15:42:30.730Z,101170.00
2024-05-09T15:45:07.244Z,101170.00
2024-05-09T15:47:40.644Z,101137.00
2024-05-09T15:50:20.275Z,101166.00
2024-05-09T15:53:02.100Z,101136.00
2024-05-09T15:55:34.801Z,101154.00
2024-05-09T15:58:09.896Z,101160.00
2024-05-09T16:00:42.267Z,101166.00
2024-05-09T16:03:21.318Z,101135.00
2024-05-09T16:05:52.069Z,101164.00
2024-05-09T16:08:25.721Z,101142.00
2024-05-09T16:10:54.877Z,101134.00
2024-05-09T16:13:41.366Z,101135.00
2024-05-09T16:16:12.972Z,101142.00
2024-05-09T16:18:41.855Z,101144.00
2024-05-09T16:21:16.049Z,101128.00
2024-05-09T16:23:44.276Z,101121.00
2024-05-09T16:26:17.740Z,101113.00
2024-05-09T16:28:53.058Z,101123.00
2024-05-09T16:31:24.204Z,101123.00
2024-05-09T16:33:56.159Z,101118.00
2024-05-09T16:36:30.514Z,101107.00
2024-05-09T16:39:01.827Z,101113.00
2024-05-09T16:41:36.457Z,101106.00
2024-05-09T16:44:10.262Z,101089.00
2024-05-09T16:46:46.191Z,101104.00
2024-05-09T16:49:14.688Z,101094.00
2024-05-09T16:51:47.137Z,101080.00
2024-05-09T16:54:19.488Z,101083.00
2024-05-09T16:56:52.284Z,101074.00
2024-05-09T16:59:26.319Z,101077.00
2024-05-09T17:02:36.033Z,101078.00
2024-05-09T17:05:08.350Z,101077.00
2024-05-09T17:07:45.183Z,101063.00
2024-05-09T17:10:22.488Z,101056.00
2024-05-09T17:13:05.762Z,101050.00
2024-05-09T17:15:44.513Z,101057.00
2024-05-09T17:18:16.819Z,101056.00
2024-05-09T17:20:47.686Z,101040.00
2024-05-09T17:23:16.031Z,101049.00
2024-05-09T17:25:47.438Z,101035.00
2024-05-09T17:28:16.114Z,101044.00
2024-05-09T17:30:49.715Z,101032.00
2024-05-09T17:33:18.225Z,101027.00
2024-05-09T17:35:50.898Z,101024.00
2024-05-09T17:38:20.517Z,101026.00
2024-05-09T17:40:52.449Z,101026.00
2024-05-09T17:43:21.137Z,101009.00
2024-05-09T17:45:54.779Z,101017.00
2024-05-09T17:48:23.860Z,101002.00
2024-05-09T17:50:57.156Z,101005.00
2024-05-09T17:53:25.371Z,101013.00
2024-05-09T17:55:56.631Z,101002.00
2024-05-09T17:58:25.067Z,101003.00
2024-05-09T18:01:02.049Z,101009.00
2024-05-09T18:03:31.958Z,100997.00
2024-05-09T18:06:05.682Z,101004.00
2024-05-09T18:08:33.958Z,101003.00
2024-05-09T18:11:08.156Z,101002.00
2024-05-09T18:13:36.506Z,100998.00
2024-05-09T18:16:11.504Z,100995.00
2024-05-09T18:18:48.211Z,101001.00
2024-05-09T18:21:19.755Z,100987.00
2024-05-09T18:23:48.271Z,100992.00
2024-05-09T18:26:19.055Z,100983.00
2024-05-09T18:28:47.530Z,100987.00
2024-05-09T18:31:21.504Z,100985.00
2024-05-09T18:33:51.280Z,100979.00
2024-05-09T18:36:22.463Z,100972.00
2024-05-09T18:38:52.115Z,100980.00
2024-05-09T18:41:23.498Z,100971.00
2024-05-09T18:43:53.656Z,100978.00
2024-05-09T18:46:28.604Z,100983.00
2024-05-09T18:49:00.728Z,100965.00
2024-05-09T18:51:32.176Z,100954.00
2024-05-09T18:54:01.811Z,100962.00
2024-05-09T18:56:32.826Z,100961.00
2024-05-09T18:59:03.759Z,100954.00
2024-05-09T19:01:36.547Z,100965.00
2024-05-09T19:04:08.768Z,100950.00
2024-05-09T19:06:44.679Z,100949.00
2024-05-09T19:09:17.128Z,100950.00
2024-05-09T19:11:45.410Z,100949.00
2024-05-09T19:14:19.813Z,100942.00
2024-05-09T19:16:52.862Z,100936.00
2024-05-09T19:19:34.405Z,100939.00
2024-05-09T19:22:07.406Z,100943.00
2024-05-09T19:24:43.534Z,100923.00
2024-05-09T19:27:13.987Z,100932.00
2024-05-09T19:29:45.454Z,100918.00
2024-05-09T19:32:35.417Z,100920.00
2024-05-09T19:35:06.466Z,100917.00
2024-05-09T19:37:37.407Z,100922.00
2024-05-09T19:40:24.195Z,100911.00
2024-05-09T19:43:02.962Z,100913.00
2024-05-09T19:45:33.932Z,100907.00
2024-05-09T19:48:14.839Z,100900.00
2024-05-09T19:50:44.764Z,100911.00
2024-05-09T19:53:16.473Z,100893.00
2024-05-09T19:55:50.415Z,100897.00
2024-05-09T19:58:25.882Z,100896.00
2024-05-09T20:00:55.462Z,100892.00
2024-05-09T20:03:29.214Z,100887.00
2024-05-09T20:05:59.229Z,100890.00
2024-05-09T20:08:31.862Z,100891.00
2024-05-09T20:11:02.219Z,100890.00
2024-05-09T20:13:33.203Z,100884.00
2024-05-09T20:16:02.612Z,100879.00
2024-05-09T20:18:40.856Z,100898.00
2024-05-09T20:21:11.738Z,100884.00
2024-05-09T20:23:46.595Z,100875.00
2024-05-09T20:26:15.506Z,100878.00
2024-05-09T20:28:46.597Z,100873.00
2024-05-09T20:31:21.506Z,100877.00
2024-05-09T20:33:55.588Z,100870.00
2024-05-09T20:36:25.031Z,100862.00
2024-05-09T20:38:56.258Z,100866.00
2024-05-09T20:41:24.415Z,100868.00
2024-05-09T20:44:05.186Z,100862.00
2024-05-09T20:46:35.603Z,100859.00
2024-05-09T20:49:10.289Z,100856.00
2024-05-09T20:51:43.751Z,100851.00
2024-05-09T20:54:17.526Z,100855.00
2024-05-09T20:56:48.941Z,100865.00
2024-05-09T20:59:21.471Z,100857.00
2024-05-09T21:01:51.504Z,100855.00
2024-05-09T21:05:05.137Z,100848.00
2024-05-09T21:07:51.352Z,100851.00
2024-05-09T21:10:27.245Z,100848.00
2024-05-09T21:13:00.359Z,100853.00
2024-05-09T21:15:40.341Z,100843.00
2024-05-09T21:18:12.003Z,100834.00
2024-05-09T21:20:49.579Z,100834.00
2024-05-09T21:23:26.457Z,100837.00
2024-05-09T21:26:02.460Z,100833.00
2024-05-09T21:28:31.059Z,100830.00
2024-05-09T21:31:02.016Z,100830.00
2024-05-09T21:33:30.520Z,100825.00
2024-05-09T21:36:04.759Z,100824.00
2024-05-09T21:38:34.361Z,100821.00
2024-05-09T21:41:05.216Z,100819.00
2024-05-09T21:43:34.562Z,100814.00
2024-05-09T21:46:05.447Z,100816.00
2024-05-09T21:48:44.855Z,100814.00
2024-05-09T21:51:20.237Z,100809.00
2024-05-09T21:53:49.644Z,100815.00
2024-05-09T21:56:21.994Z,100804.00
2024-05-09T21:58:50.192Z,100807.00
2024-05-09T22:01:21.123Z,100802.00
2024-05-09T22:03:49.698Z,100805.00
2024-05-09T22:06:23.230Z,100797.00
2024-05-09T22:08:51.457Z,100798.00
2024-05-09T22:11:26.055Z,100796.00
2024-05-09T22:13:54.332Z,100789.00
2024-05-09T22:16:25.277Z,100790.00
2024-05-09T22:18:53.722Z,100781.00
2024-05-09T22:21:29.467Z,100783.00
2024-05-09T22:24:00.936Z,100774.00
2024-05-09T22:26:32.958Z,100770.00
2024-05-09T22:31:54.111Z,100770.00
2024-05-09T22:34:26.349Z,100767.00
2024-05-09T22:37:02.235Z,100763.00
2024-05-09T22:39:31.607Z,100765.00
2024-05-09T22:42:06.242Z,100761.00
2024-05-09T22:44:36.071Z,100758.00
2024-05-09T22:47:07.661Z,100759.00
2024-05-09T22:49:39.055Z,100759.00
2024-05-09T22:52:13.359Z,100755.00
2024-05-09T22:54:41.721Z,100763.00
2024-05-09T22:57:17.244Z,100753.00
2024-05-09T22:59:51.673Z,100749.00
2024-05-09T23:02:22.594Z,100748.00
2024-05-09T23:04:51.367Z,100734.00
2024-05-09T23:07:25.775Z,100731.00
2024-05-09T23:09:58.753Z,100743.00
2024-05-09T23:12:31.559Z,100728.00
2024-05-09T23:15:00.689Z,100726.00
2024-05-09T23:17:33.022Z,100728.00
2024-05-09T23:20:03.841Z,100721.00
2024-05-09T23:22:38.723Z,100723.00
2024-05-09T23:25:07.816Z,100723.00
2024-05-09T23:27:44.432Z,100719.00
2024-05-09T23:30:21.851Z,100715.00
2024-05-09T23:32:59.846Z,100712.00
2024-05-09T23:35:28.612Z,100703.00
2024-05-09T23:38:02.145Z,100702.00
2024-05-09T23:43:17.392Z,100700.00
2024-05-09T23:45:54.356Z,100699.00
2024-05-09T23:48:27.823Z,100694.00
2024-05-09T23:50:59.919Z,100689.00
2024-05-09T23:53:34.939Z,100696.00
2024-05-09T23:56:04.193Z,100691.00
2024-05-09T23:58:35.838Z,100688.00
